createdAt,value
2019-02-18T00:07:30.936Z,21.8
2019-02-18T00:17:30.141Z,21.8
2019-02-18T00:27:29.347Z,21.8
2019-02-18T00:37:28.551Z,21.8
2019-02-18T00:47:27.756Z,21.7
2019-02-18T00:57:26.963Z,21.7
2019-02-18T01:07:34.386Z,21.7
2019-02-18T01:17:25.371Z,21.7
2019-02-18T01:27:24.576Z,21.6
2019-02-18T01:37:23.784Z,21.7
2019-02-18T01:47:22.991Z,21.6
2019-02-18T01:57:22.193Z,21.6
2019-02-18T02:07:21.396Z,21.6
2019-02-18T02:17:20.601Z,21.6
2019-02-18T02:27:19.805Z,21.6
2019-02-18T02:37:19.028Z,21.6
2019-02-18T02:47:18.213Z,21.6
2019-02-18T02:57:17.418Z,21.6
2019-02-18T03:07:16.622Z,21.6
2019-02-18T03:17:15.827Z,21.6
2019-02-18T03:27:15.057Z,21.6
2019-02-18T03:37:14.238Z,21.5
2019-02-18T03:47:13.438Z,21.6
2019-02-18T03:57:12.643Z,21.6
2019-02-18T04:07:11.845Z,21.6
2019-02-18T04:17:11.049Z,21.6
2019-02-18T04:27:10.255Z,21.6
2019-02-18T04:37:09.494Z,21.6
2019-02-18T04:47:08.673Z,21.6
2019-02-18T04:57:07.882Z,21.6
2019-02-18T05:07:07.101Z,21.7
2019-02-18T05:17:06.302Z,21.6
2019-02-18T05:27:05.513Z,21.8
2019-02-18T05:37:04.720Z,21.9
2019-02-18T05:47:03.927Z,21.9
2019-02-18T05:57:03.132Z,22.1
2019-02-18T06:07:02.340Z,22.1
2019-02-18T06:17:02.806Z,22.1
2019-02-18T06:27:00.752Z,22.1
2019-02-18T06:36:59.957Z,22
2019-02-18T06:46:59.166Z,21.9
2019-02-18T06:56:58.378Z,21.9
2019-02-18T07:06:57.570Z,21.9
2019-02-18T07:16:56.773Z,22
2019-02-18T07:26:55.976Z,22
2019-02-18T07:36:55.179Z,22
2019-02-18T07:46:54.418Z,22.1
2019-02-18T07:56:53.590Z,22.1
2019-02-18T08:06:52.792Z,22.1
2019-02-18T08:16:51.996Z,22.1
2019-02-18T08:26:51.202Z,22.1
2019-02-18T08:36:50.406Z,22.1
2019-02-18T08:46:49.611Z,22.2
2019-02-18T08:56:48.815Z,22.2
2019-02-18T09:06:48.019Z,22.2
2019-02-18T09:16:47.223Z,22.2
2019-02-18T09:26:46.428Z,22.3
2019-02-18T09:36:45.632Z,22.3
2019-02-18T09:46:44.836Z,22.3
2019-02-18T09:56:44.041Z,22.3
2019-02-18T10:06:43.249Z,22.3
2019-02-18T10:16:42.451Z,22.3
2019-02-18T10:26:41.663Z,22.3
2019-02-18T10:36:40.863Z,22.3
2019-02-18T10:46:40.741Z,22.3
2019-02-18T10:56:39.271Z,22.3
2019-02-18T11:08:02.166Z,22.3
2019-02-18T11:18:01.373Z,22.3
2019-02-18T11:28:00.579Z,22.3
2019-02-18T11:37:59.795Z,22.3
2019-02-18T11:47:59.001Z,22.4
2019-02-18T11:57:58.208Z,22.3
2019-02-18T12:07:57.465Z,22.3
2019-02-18T12:17:56.755Z,22.3
2019-02-18T12:27:56.044Z,22.3
2019-02-18T12:37:55.755Z,22.3
2019-02-18T12:47:54.619Z,22.2
2019-02-18T12:57:53.909Z,22.2
2019-02-18T13:07:53.110Z,22.2
2019-02-18T13:17:52.313Z,22.1
2019-02-18T13:27:51.516Z,22.1
2019-02-18T13:37:50.719Z,22.1
2019-02-18T13:47:49.924Z,22.1
2019-02-18T13:57:49.125Z,22.1
2019-02-18T14:07:48.329Z,22.1
2019-02-18T14:17:47.533Z,22.1
2019-02-18T14:27:46.741Z,22.1
2019-02-18T14:37:45.941Z,22.1
2019-02-18T14:47:45.143Z,22.1
2019-02-18T14:57:44.344Z,22
2019-02-18T15:07:43.547Z,22.1
2019-02-18T15:17:42.748Z,22.1
2019-02-18T15:27:41.952Z,22
2019-02-18T15:37:41.154Z,22
2019-02-18T15:47:40.356Z,22
2019-02-18T15:57:39.560Z,21.9
2019-02-18T16:07:38.770Z,21.9
2019-02-18T16:17:37.965Z,21.9
2019-02-18T16:27:37.172Z,21.9
2019-02-18T16:37:36.379Z,21.9
2019-02-18T16:47:35.586Z,21.9
2019-02-18T16:57:34.795Z,22
2019-02-18T17:07:34.003Z,22
2019-02-18T17:17:33.210Z,22
2019-02-18T17:27:32.420Z,22.1
2019-02-18T17:37:31.632Z,22.2
2019-02-18T17:47:30.843Z,22.3
2019-02-18T17:57:30.053Z,22.3
2019-02-18T18:07:29.266Z,22.3
2019-02-18T18:17:28.474Z,22.3
2019-02-18T18:27:27.683Z,22.3
2019-02-18T18:37:26.899Z,22.3
2019-02-18T18:47:26.105Z,22.3
2019-02-18T18:57:25.331Z,22.3
2019-02-18T19:07:24.566Z,22.3
2019-02-18T19:17:23.739Z,22.3
2019-02-18T19:27:22.963Z,22.4
2019-02-18T19:37:22.172Z,22.4
2019-02-18T19:47:21.391Z,22.4
2019-02-18T19:57:20.608Z,22.4
2019-02-18T20:07:19.825Z,22.4
2019-02-18T20:17:19.038Z,22.6
2019-02-18T20:27:18.255Z,22.4
2019-02-18T20:37:17.469Z,22.4
2019-02-18T20:47:16.678Z,22.4
2019-02-18T20:57:15.890Z,22.6
2019-02-18T21:11:01.553Z,22.6
2019-02-18T21:21:00.762Z,22.4
2019-02-18T21:30:59.970Z,22.4
2019-02-18T21:40:59.181Z,22.3
2019-02-18T21:50:58.386Z,22.3
2019-02-18T22:00:57.596Z,22.3
2019-02-18T22:10:56.842Z,22.2
2019-02-18T22:20:56.132Z,22.1
2019-02-18T22:30:55.422Z,22.1
2019-02-18T22:40:54.714Z,22.1
2019-02-18T22:50:53.999Z,22.1
2019-02-18T23:00:53.289Z,22.1
2019-02-18T23:10:52.495Z,22
2019-02-18T23:20:51.702Z,22
2019-02-18T23:30:50.908Z,22
2019-02-18T23:40:50.116Z,21.9
2019-02-18T23:50:49.320Z,21.9
